Time;durP1;ratioP1;P1;durP2;ratioP2;P2;SDS_P1;SDS_P2;PMS_P1;PMS_P2;Temp;Humidity;BMP_temperature;BMP_pressure;BME280_temperature;BME280_humidity;BME280_pressure;Samples;Min_cycle;Max_cycle;Signal;HPM_P1;HPM_P2
2023/07/03 00:01:07;;;;;;;4.43;4.07;;;15.80;64.50;;;;;;5238570;28;20174;-46
2023/07/03 00:03:38;;;;;;;11.20;4.97;;;15.80;64.70;;;;;;5238485;28;20562;-45
2023/07/03 00:06:09;;;;;;;8.93;4.57;;;15.80;64.70;;;;;;5234266;28;20451;-45
2023/07/03 00:08:39;;;;;;;9.97;4.93;;;15.80;65.00;;;;;;5216332;28;20432;-44
2023/07/03 00:11:10;;;;;;;15.17;5.93;;;15.70;65.10;;;;;;5238210;28;20639;-45
2023/07/03 00:13:41;;;;;;;13.87;5.30;;;15.80;66.00;;;;;;5236256;28;20572;-43
2023/07/03 00:16:11;;;;;;;12.03;4.70;;;15.80;66.10;;;;;;5223610;28;20577;-43
2023/07/03 00:18:42;;;;;;;5.40;4.73;;;15.70;66.70;;;;;;5236047;28;20198;-44
2023/07/03 00:21:13;;;;;;;8.10;4.80;;;15.60;67.10;;;;;;5218975;28;20180;-44
2023/07/03 00:23:43;;;;;;;7.53;4.50;;;15.60;68.00;;;;;;5231209;28;20175;-44
2023/07/03 00:26:14;;;;;;;5.50;4.43;;;15.60;68.00;;;;;;5237226;28;20276;-44
2023/07/03 00:28:44;;;;;;;14.47;4.07;;;15.50;68.70;;;;;;5219910;28;20277;-44
2023/07/03 00:31:15;;;;;;;5.23;3.70;;;15.50;69.30;;;;;;5233494;28;20170;-44
2023/07/03 00:33:46;;;;;;;4.60;4.10;;;15.40;70.00;;;;;;5233001;28;20524;-44
2023/07/03 00:36:17;;;;;;;9.63;4.60;;;15.30;70.90;;;;;;5212772;28;20298;-43
2023/07/03 00:38:48;;;;;;;6.90;4.83;;;15.30;71.90;;;;;;5243367;28;20214;-44
2023/07/03 00:41:19;;;;;;;8.40;4.10;;;15.30;73.40;;;;;;5235221;28;20433;-44
2023/07/03 00:43:49;;;;;;;5.53;3.80;;;15.20;74.50;;;;;;5247155;28;20217;-43
2023/07/03 00:46:20;;;;;;;8.20;5.03;;;15.20;75.40;;;;;;5240407;28;20213;-44
2023/07/03 00:48:51;;;;;;;7.70;3.77;;;15.20;76.70;;;;;;5232955;28;20229;-44
2023/07/03 00:51:21;;;;;;;11.50;3.70;;;15.20;77.80;;;;;;5238683;28;20189;-45
2023/07/03 00:53:52;;;;;;;6.47;4.30;;;15.30;78.10;;;;;;5224693;28;20185;-44
2023/07/03 00:56:23;;;;;;;7.10;4.67;;;15.30;78.30;;;;;;5222701;28;20194;-43
2023/07/03 00:58:53;;;;;;;8.50;4.90;;;15.20;79.60;;;;;;5218838;28;20194;-44
2023/07/03 01:01:34;;;;;;;16.00;5.00;;;15.30;80.30;;;;;;5241137;28;20175;-45
2023/07/03 01:04:12;;;;;;;7.40;5.30;;;15.20;81.60;;;;;;5223106;28;20171;-45
2023/07/03 01:06:48;;;;;;;9.27;4.40;;;15.20;83.70;;;;;;5223787;28;20453;-43
2023/07/03 01:09:23;;;;;;;8.00;4.67;;;15.10;84.40;;;;;;5234935;28;20935;-50
2023/07/03 01:11:56;;;;;;;4.90;4.27;;;15.00;86.20;;;;;;5210991;28;20474;-44
2023/07/03 01:14:28;;;;;;;7.00;4.80;;;15.00;88.10;;;;;;5220250;28;20441;-44
2023/07/03 01:17:00;;;;;;;6.23;4.40;;;15.00;88.40;;;;;;5236331;28;20503;-44
2023/07/03 01:19:32;;;;;;;17.80;5.20;;;14.90;90.00;;;;;;5240007;28;20513;-44
2023/07/03 01:22:18;;;;;;;10.57;4.20;;;15.20;90.10;;;;;;5237860;28;20430;-45
2023/07/03 01:24:54;;;;;;;5.23;4.70;;;15.10;90.00;;;;;;5243383;28;20432;-45
2023/07/03 01:27:31;;;;;;;7.73;4.00;;;15.20;90.50;;;;;;5223762;28;20436;-44
2023/07/03 01:30:06;;;;;;;4.97;4.50;;;15.20;90.10;;;;;;5240024;28;20435;-43
2023/07/03 01:32:38;;;;;;;8.17;5.20;;;15.30;90.30;;;;;;5241948;28;20896;-43
2023/07/03 01:35:11;;;;;;;7.17;4.60;;;15.30;90.10;;;;;;5242877;28;20543;-43
2023/07/03 01:37:46;;;;;;;8.40;4.97;;;15.40;90.50;;;;;;5223489;28;20432;-44
2023/07/03 01:40:21;;;;;;;7.47;4.93;;;15.50;90.30;;;;;;5246538;28;20550;-44
2023/07/03 01:42:53;;;;;;;4.33;4.00;;;15.50;90.30;;;;;;5240206;28;20429;-44
2023/07/03 01:45:25;;;;;;;13.20;5.47;;;15.60;90.40;;;;;;5208069;28;20468;-43
2023/07/03 01:47:56;;;;;;;5.40;4.50;;;15.70;90.20;;;;;;5236419;28;20439;-43
2023/07/03 01:50:29;;;;;;;5.93;4.00;;;15.70;90.00;;;;;;5228029;28;20445;-43
2023/07/03 01:53:05;;;;;;;12.80;4.67;;;15.80;89.40;;;;;;5246450;28;20708;-43
2023/07/03 01:55:59;;;;;;;10.03;4.90;;;15.80;89.20;;;;;;5225603;28;20452;-45
2023/07/03 01:58:50;;;;;;;9.60;4.23;;;15.90;88.30;;;;;;5233096;28;21239;-45
2023/07/03 02:01:52;;;;;;;24.40;5.37;;;16.00;87.60;;;;;;5247092;28;20935;-43
2023/07/03 02:04:32;;;;;;;5.97;4.17;;;16.00;87.60;;;;;;5226330;28;20432;-44
2023/07/03 02:07:04;;;;;;;6.77;4.97;;;16.00;86.40;;;;;;5234403;28;20448;-43
2023/07/03 02:09:35;;;;;;;13.70;6.17;;;16.20;85.70;;;;;;5239666;28;20456;-45
2023/07/03 02:12:07;;;;;;;11.80;6.20;;;16.30;84.80;;;;;;5237071;28;20425;-43
2023/07/03 02:14:38;;;;;;;10.77;5.10;;;16.20;85.00;;;;;;5247314;28;20441;-43
2023/07/03 02:17:09;;;;;;;7.23;4.43;;;16.30;84.80;;;;;;5223932;28;20553;-43
2023/07/03 02:19:40;;;;;;;6.27;4.77;;;16.30;84.40;;;;;;5241885;28;20469;-44
2023/07/03 02:22:10;;;;;;;12.70;5.27;;;16.40;84.20;;;;;;5223934;28;20448;-52
2023/07/03 02:24:41;;;;;;;7.30;4.60;;;16.30;84.80;;;;;;5223667;28;20198;-44
2023/07/03 02:27:12;;;;;;;9.10;5.03;;;16.40;85.00;;;;;;5227402;28;20209;-43
2023/07/03 02:29:43;;;;;;;10.40;4.60;;;16.30;85.10;;;;;;5240717;28;20183;-44
2023/07/03 02:32:13;;;;;;;10.03;4.97;;;16.20;85.30;;;;;;5243441;28;20194;-45
2023/07/03 02:34:44;;;;;;;12.97;5.13;;;16.30;85.70;;;;;;5215531;28;20186;-44
2023/07/03 02:37:14;;;;;;;9.20;4.83;;;16.20;85.70;;;;;;5234922;28;20201;-43
2023/07/03 02:39:45;;;;;;;9.40;5.27;;;16.20;85.80;;;;;;5221514;28;20210;-44
2023/07/03 02:42:16;;;;;;;13.43;6.00;;;16.30;86.00;;;;;;5232439;28;20218;-43
2023/07/03 02:44:49;;;;;;;7.43;4.70;;;16.30;85.70;;;;;;5233573;28;20186;-44
2023/07/03 02:47:20;;;;;;;9.57;5.67;;;16.20;85.90;;;;;;5237477;28;20222;-44
2023/07/03 02:49:51;;;;;;;8.53;4.20;;;16.50;85.30;;;;;;5226997;28;20503;-43
2023/07/03 02:52:22;;;;;;;9.70;5.27;;;16.40;85.60;;;;;;5233025;28;20214;-44
2023/07/03 02:54:52;;;;;;;6.83;4.57;;;16.30;85.80;;;;;;5219757;28;20487;-43
2023/07/03 02:57:23;;;;;;;4.80;4.33;;;16.40;85.00;;;;;;5234585;28;20175;-42
2023/07/03 02:59:54;;;;;;;6.70;4.60;;;16.50;84.50;;;;;;5236512;28;20197;-43
2023/07/03 03:02:26;;;;;;;8.33;4.90;;;16.40;85.00;;;;;;5239195;28;20197;-43
2023/07/03 03:04:56;;;;;;;9.17;5.10;;;16.40;85.20;;;;;;5238085;28;20433;-44
2023/07/03 03:07:27;;;;;;;10.50;5.10;;;16.40;84.90;;;;;;5236463;28;20447;-44
2023/07/03 03:09:58;;;;;;;10.33;4.70;;;16.40;85.60;;;;;;5232036;28;20218;-44
2023/07/03 03:12:28;;;;;;;10.13;5.50;;;16.40;86.20;;;;;;5215266;28;20201;-44
2023/07/03 03:14:59;;;;;;;8.17;4.70;;;16.30;86.40;;;;;;5229732;28;20278;-45
2023/07/03 03:17:30;;;;;;;9.67;5.83;;;16.30;86.20;;;;;;5239325;28;20670;-44
2023/07/03 03:20:01;;;;;;;11.97;5.57;;;16.30;86.40;;;;;;5243245;28;20296;-44
2023/07/03 03:22:31;;;;;;;7.33;4.90;;;16.30;86.40;;;;;;5235259;28;20430;-43
2023/07/03 03:25:02;;;;;;;8.10;5.07;;;16.30;86.30;;;;;;5223128;28;20642;-44
2023/07/03 03:27:33;;;;;;;8.60;5.10;;;16.30;86.40;;;;;;5220872;28;20211;-42
2023/07/03 03:30:04;;;;;;;10.00;5.50;;;16.30;86.90;;;;;;5232748;28;20183;-44
2023/07/03 03:32:35;;;;;;;7.10;4.97;;;16.30;87.30;;;;;;5233474;28;20186;-43
2023/07/03 03:35:06;;;;;;;12.93;5.57;;;16.20;88.10;;;;;;5220340;28;20424;-44
2023/07/03 03:37:37;;;;;;;7.20;4.10;;;16.20;89.50;;;;;;5240879;28;20298;-43
2023/07/03 03:40:09;;;;;;;13.87;5.07;;;16.20;89.70;;;;;;5234177;28;20461;-43
2023/07/03 03:42:39;;;;;;;14.60;5.50;;;16.30;89.30;;;;;;5213532;28;20177;-44
2023/07/03 03:45:10;;;;;;;11.00;4.23;;;16.30;88.30;;;;;;5222826;28;20449;-43
2023/07/03 03:47:41;;;;;;;6.87;4.50;;;16.30;88.70;;;;;;5238195;28;20210;-43
2023/07/03 03:50:12;;;;;;;7.57;5.50;;;16.30;88.50;;;;;;5240166;28;20552;-43
2023/07/03 03:52:42;;;;;;;10.03;4.53;;;16.40;88.10;;;;;;5222810;28;20207;-43
2023/07/03 03:55:13;;;;;;;14.47;4.47;;;16.50;88.00;;;;;;5219781;28;20198;-45
2023/07/03 03:57:43;;;;;;;5.30;4.03;;;16.50;87.40;;;;;;5241733;28;20285;-43
2023/07/03 04:00:19;;;;;;;6.00;4.27;;;16.50;86.60;;;;;;5231243;28;20206;-44
2023/07/03 04:02:50;;;;;;;10.00;4.83;;;16.60;86.30;;;;;;5213718;28;20186;-44
2023/07/03 04:05:21;;;;;;;12.60;4.60;;;16.70;85.60;;;;;;5244219;28;20444;-44
2023/07/03 04:07:51;;;;;;;10.37;4.37;;;16.70;85.40;;;;;;5232239;28;20549;-43
2023/07/03 04:10:22;;;;;;;10.87;4.40;;;16.70;85.30;;;;;;5214370;28;20193;-43
2023/07/03 04:12:53;;;;;;;6.83;4.50;;;16.80;85.00;;;;;;5240668;28;20186;-42
2023/07/03 04:15:24;;;;;;;9.00;4.50;;;16.90;84.90;;;;;;5245014;28;20542;-43
2023/07/03 04:17:54;;;;;;;10.50;4.67;;;16.90;84.80;;;;;;5219782;28;20205;-43
2023/07/03 04:20:26;;;;;;;19.67;5.47;;;17.00;85.00;;;;;;5236179;28;20202;-43
2023/07/03 04:22:57;;;;;;;7.50;4.50;;;17.10;84.30;;;;;;5232076;28;20190;-42
2023/07/03 04:25:30;;;;;;;7.20;5.30;;;17.10;84.00;;;;;;5212415;28;20453;-43
2023/07/03 04:28:02;;;;;;;6.20;4.80;;;17.20;83.80;;;;;;5215015;28;20218;-45
2023/07/03 04:30:33;;;;;;;6.10;4.10;;;17.30;83.40;;;;;;5238928;28;20573;-44
2023/07/03 04:33:04;;;;;;;6.30;4.70;;;17.40;83.20;;;;;;5232683;28;20440;-43
2023/07/03 04:35:36;;;;;;;8.87;4.77;;;17.50;83.10;;;;;;5238478;28;20198;-45
2023/07/03 04:38:07;;;;;;;9.63;5.67;;;17.60;82.00;;;;;;5236074;28;20187;-43
2023/07/03 04:40:38;;;;;;;4.63;4.03;;;17.70;81.70;;;;;;5234538;28;20491;-44
2023/07/03 04:43:08;;;;;;;6.00;4.20;;;17.80;81.10;;;;;;5243792;28;20539;-43
2023/07/03 04:45:47;;;;;;;6.53;4.33;;;17.90;80.30;;;;;;5234609;28;20210;-44
2023/07/03 04:48:18;;;;;;;11.00;4.47;;;18.00;79.30;;;;;;5230236;28;20178;-44
2023/07/03 04:50:49;;;;;;;9.60;5.40;;;18.10;78.20;;;;;;5239086;28;20795;-44
2023/07/03 04:53:23;;;;;;;9.73;4.67;;;18.20;77.50;;;;;;5223202;28;20523;-43
2023/07/03 04:55:53;;;;;;;6.13;4.50;;;18.40;77.20;;;;;;5224727;28;20202;-44
2023/07/03 04:58:25;;;;;;;9.17;5.23;;;18.70;76.00;;;;;;5228657;28;21062;-45
2023/07/03 05:00:55;;;;;;;7.50;4.10;;;18.90;74.30;;;;;;5224594;28;20600;-43
2023/07/03 05:03:26;;;;;;;10.90;4.80;;;19.00;74.00;;;;;;5243251;28;20533;-43
2023/07/03 05:05:56;;;;;;;8.40;4.37;;;19.10;74.00;;;;;;5218278;28;20751;-44
2023/07/03 05:08:27;;;;;;;5.70;4.70;;;19.20;73.30;;;;;;5219383;28;20194;-44
2023/07/03 05:11:00;;;;;;;9.50;4.63;;;19.20;72.20;;;;;;5222297;28;20273;-43
2023/07/03 05:13:31;;;;;;;13.47;5.40;;;19.30;71.90;;;;;;5202529;28;20201;-43
2023/07/03 05:16:02;;;;;;;10.60;4.43;;;19.50;70.70;;;;;;5237231;28;20452;-44
2023/07/03 05:18:33;;;;;;;15.87;6.03;;;19.70;68.80;;;;;;5217763;28;20181;-43
2023/07/03 05:21:06;;;;;;;9.33;5.20;;;20.20;66.90;;;;;;5224116;28;20595;-44
2023/07/03 05:23:36;;;;;;;9.17;5.10;;;20.40;65.10;;;;;;5240996;28;20189;-43
2023/07/03 05:26:07;;;;;;;10.83;4.93;;;20.80;64.30;;;;;;5243459;28;20539;-43
2023/07/03 05:28:38;;;;;;;13.53;5.63;;;21.10;62.90;;;;;;5235207;28;20214;-43
2023/07/03 05:31:08;;;;;;;6.80;5.77;;;21.00;61.90;;;;;;5237311;28;20203;-44
2023/07/03 05:33:39;;;;;;;7.60;5.50;;;21.10;62.20;;;;;;5235256;28;20171;-43
2023/07/03 05:36:10;;;;;;;10.97;5.10;;;21.40;60.20;;;;;;5220606;28;20265;-43
2023/07/03 05:38:41;;;;;;;8.37;4.70;;;21.90;59.50;;;;;;5234154;28;20628;-43
2023/07/03 05:41:12;;;;;;;8.47;5.67;;;22.40;57.90;;;;;;5240733;28;20178;-43
2023/07/03 05:43:42;;;;;;;9.20;5.20;;;22.70;56.10;;;;;;5211295;28;20275;-45
2023/07/03 05:46:13;;;;;;;6.20;4.53;;;22.60;54.50;;;;;;5236437;28;20526;-43
2023/07/03 05:48:44;;;;;;;9.80;4.83;;;22.40;55.10;;;;;;5223304;28;20183;-44
2023/07/03 05:51:14;;;;;;;8.80;5.40;;;21.90;55.60;;;;;;5237221;28;20610;-44
2023/07/03 05:53:45;;;;;;;14.63;5.80;;;21.70;56.70;;;;;;5223614;28;20178;-45
2023/07/03 05:56:16;;;;;;;12.80;5.03;;;21.60;56.60;;;;;;5235755;28;20222;-43
2023/07/03 05:58:47;;;;;;;12.77;4.57;;;21.60;56.30;;;;;;5239797;28;20461;-42
2023/07/03 06:01:18;;;;;;;11.43;5.67;;;21.20;56.80;;;;;;5217286;28;20795;-44
2023/07/03 06:03:48;;;;;;;10.27;5.40;;;20.90;57.30;;;;;;5222176;28;20533;-44
2023/07/03 06:06:19;;;;;;;10.70;5.73;;;20.70;57.80;;;;;;5222327;28;20273;-43
2023/07/03 06:08:50;;;;;;;8.67;5.27;;;20.50;58.60;;;;;;5217123;28;20797;-43
2023/07/03 06:11:21;;;;;;;9.20;5.50;;;20.40;59.10;;;;;;5225000;28;20440;-44
2023/07/03 06:13:51;;;;;;;8.40;5.20;;;20.30;59.50;;;;;;5206454;28;20183;-43
2023/07/03 06:16:22;;;;;;;7.77;5.17;;;20.40;59.60;;;;;;5225421;28;20704;-43
2023/07/03 06:18:54;;;;;;;23.07;5.33;;;20.40;59.80;;;;;;5241932;28;20198;-43
2023/07/03 06:21:24;;;;;;;6.63;4.90;;;21.00;59.00;;;;;;5240666;28;20173;-43
2023/07/03 06:23:55;;;;;;;12.07;5.70;;;21.60;57.80;;;;;;5228631;28;20778;-44
2023/07/03 06:26:28;;;;;;;18.10;9.37;;;22.10;57.00;;;;;;5245016;28;20225;-44
2023/07/03 06:28:59;;;;;;;6.23;4.47;;;22.60;56.30;;;;;;5245259;28;20227;-43
2023/07/03 06:31:30;;;;;;;7.97;4.80;;;24.40;53.90;;;;;;5234990;28;20440;-44
2023/07/03 06:34:02;;;;;;;12.00;4.20;;;26.00;50.30;;;;;;5214346;28;20489;-45
2023/07/03 06:36:34;;;;;;;13.67;5.60;;;26.70;47.70;;;;;;5242460;28;20214;-43
2023/07/03 06:39:05;;;;;;;11.97;4.97;;;27.40;45.40;;;;;;5243040;28;20461;-42
2023/07/03 06:41:36;;;;;;;15.30;5.60;;;28.10;44.10;;;;;;5230647;28;20967;-44
2023/07/03 06:44:12;;;;;;;9.50;4.30;;;28.30;42.00;;;;;;5241288;28;20186;-42
2023/07/03 06:46:43;;;;;;;9.20;4.23;;;28.90;41.40;;;;;;5235616;28;20725;-44
2023/07/03 06:49:14;;;;;;;22.87;5.13;;;29.20;40.70;;;;;;5231534;28;20432;-44
2023/07/03 06:51:45;;;;;;;12.27;4.83;;;29.00;40.50;;;;;;5210488;28;20474;-44
2023/07/03 06:54:16;;;;;;;11.30;4.07;;;28.40;40.60;;;;;;5211480;28;20831;-43
2023/07/03 06:56:47;;;;;;;11.93;3.90;;;26.90;42.40;;;;;;5224331;28;20210;-42
2023/07/03 06:59:18;;;;;;;10.10;4.17;;;25.20;45.20;;;;;;5237780;28;20464;-45
2023/07/03 07:01:48;;;;;;;8.83;4.27;;;24.20;47.40;;;;;;5223632;28;20576;-43
2023/07/03 07:04:19;;;;;;;15.53;5.00;;;23.50;49.00;;;;;;5216964;28;20182;-46
2023/07/03 07:06:50;;;;;;;15.17;5.33;;;22.90;50.50;;;;;;5233483;28;20209;-44
2023/07/03 07:09:21;;;;;;;11.53;4.40;;;23.00;50.10;;;;;;5235319;28;20278;-44
2023/07/03 07:11:51;;;;;;;7.73;3.60;;;22.80;50.30;;;;;;5243212;28;20182;-43
2023/07/03 07:14:22;;;;;;;8.87;3.97;;;22.90;50.60;;;;;;5211552;28;20194;-43
2023/07/03 07:16:52;;;;;;;14.70;4.60;;;22.90;50.90;;;;;;5223126;28;20206;-43
2023/07/03 07:19:23;;;;;;;6.97;4.83;;;23.30;51.10;;;;;;5243395;28;20209;-43
2023/07/03 07:21:54;;;;;;;12.30;4.50;;;25.30;48.10;;;;;;5224017;28;20586;-43
2023/07/03 07:24:27;;;;;;;8.93;4.77;;;25.90;46.50;;;;;;5233550;28;20895;-45
2023/07/03 07:26:59;;;;;;;7.27;4.30;;;25.20;46.40;;;;;;5239340;28;20194;-43
2023/07/03 07:29:30;;;;;;;12.20;4.57;;;24.10;47.80;;;;;;5220544;28;20515;-43
2023/07/03 07:32:01;;;;;;;6.47;4.57;;;23.40;49.40;;;;;;5238313;28;20456;-43
2023/07/03 07:34:32;;;;;;;12.47;4.77;;;24.20;49.80;;;;;;5221832;28;20191;-43
2023/07/03 07:37:02;;;;;;;9.80;4.97;;;26.10;46.20;;;;;;5221114;28;20203;-43
2023/07/03 07:39:33;;;;;;;10.40;4.73;;;26.30;44.90;;;;;;5241798;28;20210;-42
2023/07/03 07:42:04;;;;;;;11.80;4.30;;;26.00;45.40;;;;;;5241227;28;20190;-43
2023/07/03 07:44:35;;;;;;;21.53;5.10;;;25.30;46.20;;;;;;5224992;28;20820;-45
2023/07/03 07:47:06;;;;;;;10.03;4.60;;;24.70;47.30;;;;;;5238611;28;20262;-43
2023/07/03 07:49:38;;;;;;;7.40;4.40;;;24.90;47.30;;;;;;5243563;28;20185;-43
2023/07/03 07:52:09;;;;;;;8.93;4.30;;;27.40;44.40;;;;;;5202747;28;20460;-44
2023/07/03 07:54:39;;;;;;;13.53;4.93;;;29.00;41.90;;;;;;5237571;28;20483;-43
2023/07/03 07:57:10;;;;;;;5.27;4.33;;;29.50;41.00;;;;;;5232060;28;20845;-44
2023/07/03 07:59:41;;;;;;;7.50;4.10;;;30.00;38.90;;;;;;5214413;28;20205;-44
2023/07/03 08:02:11;;;;;;;14.50;4.00;;;30.00;39.30;;;;;;5217964;28;20590;-42
2023/07/03 08:04:43;;;;;;;11.07;4.73;;;29.60;38.60;;;;;;5221721;28;20563;-44
2023/07/03 08:07:15;;;;;;;8.50;4.33;;;28.40;39.70;;;;;;5199957;28;20220;-44
2023/07/03 08:09:46;;;;;;;9.40;4.23;;;29.30;39.90;;;;;;5234615;28;20955;-42
2023/07/03 08:12:16;;;;;;;7.50;4.50;;;30.50;38.60;;;;;;5232740;28;20440;-45
2023/07/03 08:14:47;;;;;;;11.40;5.70;;;30.20;37.10;;;;;;5234884;28;20198;-43
2023/07/03 08:17:19;;;;;;;8.50;3.73;;;29.30;38.40;;;;;;5220842;28;20280;-42
2023/07/03 08:19:49;;;;;;;10.23;3.97;;;28.40;40.00;;;;;;5219502;28;20218;-43
2023/07/03 08:22:20;;;;;;;4.07;3.20;;;28.00;40.90;;;;;;5233332;28;20536;-43
2023/07/03 08:24:51;;;;;;;9.93;3.90;;;28.20;41.00;;;;;;5207440;28;20178;-43
2023/07/03 08:27:22;;;;;;;11.07;4.10;;;30.60;38.00;;;;;;5204453;28;20193;-43
2023/07/03 08:29:52;;;;;;;9.97;3.83;;;32.90;34.20;;;;;;5228731;28;20642;-43
2023/07/03 08:32:23;;;;;;;9.10;3.90;;;32.10;33.80;;;;;;5239956;28;20561;-43
2023/07/03 08:34:54;;;;;;;9.40;4.43;;;30.40;35.20;;;;;;5238628;28;20199;-43
2023/07/03 08:37:24;;;;;;;7.00;3.43;;;28.60;37.20;;;;;;5220928;28;20178;-43
2023/07/03 08:39:55;;;;;;;6.50;3.70;;;27.50;39.40;;;;;;5243906;28;20278;-42
2023/07/03 08:42:38;;;;;;;13.00;3.93;;;26.80;40.50;;;;;;5232938;28;20627;-42
2023/07/03 08:45:13;;;;;;;9.40;4.20;;;27.10;41.10;;;;;;5242943;28;20210;-43
2023/07/03 08:47:46;;;;;;;9.03;4.43;;;28.90;38.90;;;;;;5242364;28;20442;-43
2023/07/03 08:50:20;;;;;;;10.57;4.60;;;30.80;36.80;;;;;;5218850;28;20901;-42
2023/07/03 08:53:04;;;;;;;8.17;3.60;;;31.30;34.30;;;;;;5213971;28;20472;-43
2023/07/03 08:55:42;;;;;;;5.20;3.20;;;31.00;34.70;;;;;;5212664;28;20460;-43
2023/07/03 08:58:13;;;;;;;13.60;4.23;;;29.60;36.20;;;;;;5233007;28;20435;-44
2023/07/03 09:00:54;;;;;;;8.40;3.93;;;28.30;36.60;;;;;;5215191;28;20475;-43
2023/07/03 09:03:25;;;;;;;3.37;3.00;;;27.30;36.90;;;;;;5232009;28;20304;-43
2023/07/03 09:06:27;;;;;;;6.30;3.07;;;26.50;38.70;;;;;;5221423;28;20930;-43
2023/07/03 09:09:23;;;;;;;6.47;3.30;;;25.70;40.70;;;;;;5232689;28;20177;-44
2023/07/03 09:12:23;;;;;;;12.87;4.20;;;25.30;41.20;;;;;;5221910;28;20433;-47
2023/07/03 09:15:04;;;;;;;5.43;3.87;;;25.10;41.90;;;;;;5214801;28;20853;-44
2023/07/03 09:17:37;;;;;;;15.90;4.87;;;25.10;41.60;;;;;;5230443;28;20443;-43
2023/07/03 09:20:11;;;;;;;8.20;4.17;;;24.90;41.20;;;;;;5215250;28;20461;-43
2023/07/03 09:22:50;;;;;;;5.27;2.87;;;24.90;41.10;;;;;;5211062;28;20440;-43
2023/07/03 09:25:34;;;;;;;5.70;2.83;;;25.10;41.00;;;;;;5220912;28;20536;-43
2023/07/03 09:28:09;;;;;;;7.07;4.07;;;25.20;40.20;;;;;;5211289;28;20437;-43
2023/07/03 09:30:39;;;;;;;7.77;3.40;;;25.40;39.20;;;;;;5243204;28;20424;-43
2023/07/03 09:33:10;;;;;;;7.10;3.37;;;25.60;39.90;;;;;;5237192;28;20436;-42
2023/07/03 09:35:41;;;;;;;10.93;4.10;;;25.50;38.00;;;;;;5248891;28;20588;-44
2023/07/03 09:38:23;;;;;;;7.67;3.60;;;25.50;38.00;;;;;;5224921;28;20187;-43
2023/07/03 09:40:54;;;;;;;8.33;4.17;;;25.40;37.70;;;;;;5221067;28;20203;-43
2023/07/03 09:43:27;;;;;;;3.37;2.83;;;25.10;37.80;;;;;;5224976;28;20445;-43
2023/07/03 09:46:20;;;;;;;9.43;3.70;;;24.70;38.10;;;;;;5231817;28;21010;-43
2023/07/03 09:48:51;;;;;;;11.50;4.27;;;24.70;38.50;;;;;;5219686;28;20438;-43
2023/07/03 09:51:23;;;;;;;7.33;3.50;;;24.80;37.70;;;;;;5222078;28;20438;-45
2023/07/03 09:53:56;;;;;;;9.27;4.20;;;24.20;37.00;;;;;;5223476;28;20870;-43
2023/07/03 09:56:30;;;;;;;4.23;3.10;;;23.80;37.40;;;;;;5244692;28;20453;-45
2023/07/03 09:59:03;;;;;;;9.23;4.00;;;23.70;38.70;;;;;;5222142;28;20524;-42
2023/07/03 10:01:39;;;;;;;17.17;4.20;;;23.70;38.60;;;;;;5242499;28;20441;-43
2023/07/03 10:04:13;;;;;;;6.60;2.90;;;23.80;39.40;;;;;;5234171;28;20983;-44
2023/07/03 10:07:05;;;;;;;9.27;3.83;;;24.30;39.40;;;;;;5243401;28;20459;-43
2023/07/03 10:09:40;;;;;;;8.47;3.20;;;24.40;39.00;;;;;;5233376;28;20566;-44
2023/07/03 10:12:38;;;;;;;5.97;3.23;;;24.30;39.10;;;;;;5227620;28;20436;-45
2023/07/03 10:15:26;;;;;;;12.63;3.80;;;24.20;39.20;;;;;;5199624;28;20456;-44
2023/07/03 10:18:22;;;;;;;4.50;4.10;;;23.70;38.80;;;;;;5235887;28;20921;-44
2023/07/03 10:20:53;;;;;;;12.70;3.77;;;23.60;39.40;;;;;;5238687;28;20471;-43
2023/07/03 10:23:27;;;;;;;5.23;2.80;;;23.80;38.10;;;;;;5222988;28;20468;-43
2023/07/03 10:26:06;;;;;;;8.23;3.20;;;23.80;38.40;;;;;;5224264;28;20455;-44
2023/07/03 10:28:45;;;;;;;8.30;3.83;;;24.40;39.20;;;;;;5237827;28;20432;-45
2023/07/03 10:31:38;;;;;;;9.17;3.60;;;24.90;38.00;;;;;;5220761;28;20809;-46
2023/07/03 10:34:16;;;;;;;9.37;4.33;;;25.10;38.10;;;;;;5220586;28;20823;-43
2023/07/03 10:36:49;;;;;;;6.03;3.43;;;25.40;37.70;;;;;;5232911;28;20464;-45
2023/07/03 10:39:36;;;;;;;7.03;4.00;;;25.20;37.10;;;;;;5244741;28;20463;-43
2023/07/03 10:42:17;;;;;;;6.23;2.90;;;25.10;37.60;;;;;;5219480;28;20524;-43
2023/07/03 10:44:52;;;;;;;5.20;2.87;;;25.20;37.60;;;;;;5237820;28;20436;-46
2023/07/03 10:47:48;;;;;;;5.53;2.83;;;25.40;37.40;;;;;;5243774;28;20531;-44
2023/07/03 10:50:28;;;;;;;4.10;2.47;;;25.70;37.60;;;;;;5230693;28;20464;-45
2023/07/03 10:53:19;;;;;;;6.67;3.23;;;25.80;36.90;;;;;;5242678;28;20455;-44
2023/07/03 10:56:19;;;;;;;4.30;3.30;;;26.00;36.20;;;;;;5236436;28;20465;-45
2023/07/03 10:59:24;;;;;;;4.37;2.80;;;26.20;35.90;;;;;;5229467;28;20443;-44
2023/07/03 11:02:19;;;;;;;6.43;3.40;;;26.00;36.20;;;;;;5208054;28;20483;-44
2023/07/03 11:05:02;;;;;;;6.90;2.60;;;25.90;36.00;;;;;;5224326;28;20500;-44
2023/07/03 11:07:45;;;;;;;4.93;2.77;;;25.40;37.00;;;;;;5222769;28;20434;-44
2023/07/03 11:10:38;;;;;;;5.97;3.00;;;25.50;37.10;;;;;;5242555;28;20436;-46
2023/07/03 11:13:21;;;;;;;6.43;2.40;;;25.20;37.40;;;;;;5233924;28;20953;-44
2023/07/03 11:16:14;;;;;;;14.90;3.30;;;25.10;37.80;;;;;;5225628;28;21008;-45
2023/07/03 11:19:36;;;;;;;4.63;3.00;;;24.90;38.10;;;;;;5233262;28;20467;-43
2023/07/03 11:22:20;;;;;;;6.63;3.00;;;24.70;37.90;;;;;;5186769;28;20967;-44
2023/07/03 11:25:06;;;;;;;10.67;3.10;;;24.20;38.50;;;;;;5238236;28;20433;-45
2023/07/03 11:28:08;;;;;;;8.67;3.37;;;23.70;40.00;;;;;;5234841;28;20432;-47
2023/07/03 11:30:42;;;;;;;8.70;3.97;;;23.40;40.60;;;;;;5237591;28;20432;-47
2023/07/03 11:33:14;;;;;;;6.60;2.83;;;23.70;40.10;;;;;;5228756;28;20791;-44
2023/07/03 11:35:55;;;;;;;12.90;3.10;;;23.90;40.30;;;;;;5238415;28;20472;-44
2023/07/03 11:38:27;;;;;;;5.20;2.60;;;24.30;40.40;;;;;;5216654;28;20471;-44
2023/07/03 11:40:58;;;;;;;11.03;4.70;;;24.60;39.70;;;;;;5221128;28;20515;-45
2023/07/03 11:43:29;;;;;;;13.97;2.50;;;24.90;40.00;;;;;;5220461;28;20524;-44
2023/07/03 11:45:59;;;;;;;5.97;2.73;;;24.80;39.30;;;;;;5233360;28;20209;-44
2023/07/03 11:48:43;;;;;;;6.43;2.40;;;24.50;39.00;;;;;;5215863;28;20781;-44
2023/07/03 11:51:29;;;;;;;1.80;1.70;;;24.10;39.80;;;;;;5222593;28;20575;-44
2023/07/03 11:54:12;;;;;;;8.13;2.80;;;23.80;40.90;;;;;;5236371;28;20451;-44
2023/07/03 11:56:46;;;;;;;8.33;2.33;;;24.10;41.20;;;;;;5219374;28;20460;-44
2023/07/03 11:59:22;;;;;;;6.00;2.60;;;24.50;41.20;;;;;;5216777;28;20973;-45
2023/07/03 12:02:13;;;;;;;7.97;2.90;;;24.90;40.60;;;;;;5235514;28;21380;-44
2023/07/03 12:04:46;;;;;;;5.90;3.20;;;25.00;40.30;;;;;;5236278;28;20440;-45
2023/07/03 12:07:17;;;;;;;5.73;3.43;;;25.20;40.50;;;;;;5243154;28;20960;-44
2023/07/03 12:09:49;;;;;;;8.17;3.77;;;24.80;39.70;;;;;;5236010;28;20433;-44
2023/07/03 12:12:26;;;;;;;6.40;3.20;;;24.40;40.30;;;;;;5236725;28;20179;-45
2023/07/03 12:14:58;;;;;;;7.17;3.53;;;24.10;41.00;;;;;;5226676;28;20589;-44
2023/07/03 12:17:36;;;;;;;9.03;3.10;;;24.20;41.60;;;;;;5225041;28;20443;-44
2023/07/03 12:20:10;;;;;;;8.40;3.43;;;24.20;42.20;;;;;;5226754;28;20482;-44
2023/07/03 12:22:51;;;;;;;4.90;2.70;;;23.60;40.90;;;;;;5240674;28;20800;-44
2023/07/03 12:25:29;;;;;;;15.43;3.80;;;23.10;41.10;;;;;;5240226;28;20453;-45
2023/07/03 12:28:13;;;;;;;4.73;2.93;;;23.10;41.70;;;;;;5238924;28;20485;-45
2023/07/03 12:30:43;;;;;;;7.73;3.03;;;23.10;41.40;;;;;;5238381;28;20483;-44
2023/07/03 12:33:19;;;;;;;7.57;3.10;;;22.90;41.30;;;;;;5240187;28;21241;-44
2023/07/03 12:35:49;;;;;;;7.93;4.07;;;22.90;41.90;;;;;;5240791;28;20205;-45
2023/07/03 12:38:20;;;;;;;6.00;3.47;;;22.90;41.70;;;;;;5239675;28;20428;-45
2023/07/03 12:40:51;;;;;;;11.80;3.80;;;22.90;42.30;;;;;;5238078;28;20206;-45
2023/07/03 12:43:22;;;;;;;11.77;2.83;;;23.10;42.60;;;;;;5218807;28;20285;-45
2023/07/03 12:45:54;;;;;;;9.03;2.77;;;23.50;42.70;;;;;;5242392;28;20225;-45
2023/07/03 12:48:24;;;;;;;11.13;3.60;;;23.70;42.60;;;;;;5219132;28;20181;-47
2023/07/03 12:50:57;;;;;;;5.37;3.30;;;24.20;42.40;;;;;;5238655;28;20444;-43
2023/07/03 12:53:32;;;;;;;9.60;3.20;;;24.10;41.80;;;;;;5223117;28;20197;-44
2023/07/03 12:56:08;;;;;;;7.60;2.80;;;23.80;42.30;;;;;;5236491;28;20452;-43
2023/07/03 12:58:40;;;;;;;8.90;3.13;;;23.50;43.30;;;;;;5235077;28;20921;-44
2023/07/03 13:01:11;;;;;;;4.20;2.70;;;23.10;43.50;;;;;;5217935;28;20464;-44
2023/07/03 13:03:43;;;;;;;7.33;3.47;;;23.10;44.10;;;;;;5238544;28;20481;-43
2023/07/03 13:06:27;;;;;;;6.57;3.30;;;23.50;44.30;;;;;;5236596;28;20455;-43
2023/07/03 13:08:59;;;;;;;10.63;3.37;;;23.60;44.00;;;;;;5207371;28;20432;-44
2023/07/03 13:11:39;;;;;;;12.00;3.43;;;23.60;44.10;;;;;;5228509;28;20765;-44
2023/07/03 13:14:18;;;;;;;11.50;3.50;;;23.60;44.20;;;;;;5229770;28;20443;-44
2023/07/03 13:16:58;;;;;;;6.73;3.97;;;23.60;44.10;;;;;;5214057;28;20472;-48
2023/07/03 13:19:35;;;;;;;10.17;3.30;;;23.60;44.30;;;;;;5229809;28;20464;-45